Terminal Aerodrome Forecast
Issued by NWS

Current Version | Previous Version | Text Only | Print | Product List | Glossary On
Versions: 1 2 3 4 5 6 7 8 9 10 11 12 13 14 15 16 17 18 19 20 21 22 23 24 25 26 27 28 29
875
FTUS43 KLOT 300304 AAA
TAFMDW
TAF AMD
KMDW 300304Z 3003/3024 26006KT P6SM VCSH FEW070 BKN100
      TEMPO 3004/3005 34010KT
     FM300500 26006KT P6SM SCT100
     FM301500 26015G23KT P6SM BKN050 PROB30 3019/3024 6SM -SHRA=

USA.gov is the U.S. government's official web portal to all federal, state and local government web resources and services.